createdAt,value
2019-05-11T00:00:35.557Z,30.62
2019-05-11T00:01:40.671Z,30.65
2019-05-11T00:02:45.621Z,30.37
2019-05-11T00:03:50.766Z,30.15
2019-05-11T00:04:55.865Z,29.72
2019-05-11T00:06:01.024Z,29.77
2019-05-11T00:07:06.291Z,29.70
2019-05-11T00:08:11.302Z,28.90
2019-05-11T00:09:16.274Z,28.73
2019-05-11T00:10:23.491Z,29.18
2019-05-11T00:11:28.297Z,28.02
2019-05-11T00:12:33.273Z,27.25
2019-05-11T00:13:38.375Z,27.55
2019-05-11T00:14:43.616Z,26.50
2019-05-11T00:15:48.778Z,27.13
2019-05-11T00:16:53.731Z,26.52
2019-05-11T00:17:58.825Z,26.60
2019-05-11T00:19:03.917Z,27.15
2019-05-11T00:20:09.184Z,26.68
2019-05-11T00:21:14.112Z,25.65
2019-05-11T00:22:19.188Z,26.82
2019-05-11T00:23:24.248Z,25.90
2019-05-11T00:24:29.711Z,26.77
2019-05-11T00:25:35.040Z,26.27
2019-05-11T00:26:40.132Z,25.05
2019-05-11T00:27:45.287Z,23.80
2019-05-11T00:28:50.339Z,25.50
2019-05-11T00:29:55.341Z,24.30
2019-05-11T00:31:00.440Z,25.68
2019-05-11T00:32:05.624Z,23.10
2019-05-11T00:33:10.593Z,24.43
2019-05-11T00:34:15.703Z,23.10
2019-05-11T00:35:20.761Z,23.30
2019-05-11T00:36:25.937Z,23.30
2019-05-11T00:37:31.039Z,24.07
2019-05-11T00:38:36.132Z,23.57
2019-05-11T00:39:41.108Z,24.18
2019-05-11T00:40:46.217Z,23.75
2019-05-11T00:41:51.323Z,22.65
2019-05-11T00:42:56.390Z,23.85
2019-05-11T00:44:01.555Z,23.05
2019-05-11T00:45:10.007Z,22.85
2019-05-11T00:46:15.425Z,23.12
2019-05-11T00:47:21.389Z,24.15
2019-05-11T00:48:26.997Z,22.30
2019-05-11T00:49:32.020Z,23.57
2019-05-11T00:50:39.836Z,23.60
2019-05-11T00:51:44.386Z,22.50
2019-05-11T00:52:49.438Z,23.38
2019-05-11T00:53:55.338Z,24.15
2019-05-11T00:55:00.576Z,23.10
2019-05-11T00:56:05.997Z,22.48
2019-05-11T00:57:11.106Z,22.22
2019-05-11T00:58:16.472Z,22.48
2019-05-11T00:59:22.175Z,22.35
2019-05-11T01:00:27.395Z,22.17
2019-05-11T01:01:33.625Z,21.80
2019-05-11T01:02:38.679Z,21.97
2019-05-11T01:03:43.625Z,21.37
2019-05-11T01:04:48.630Z,22.05
2019-05-11T01:05:53.687Z,21.35
2019-05-11T01:06:58.725Z,21.68
2019-05-11T01:08:03.656Z,21.82
2019-05-11T01:09:09.044Z,20.62
2019-05-11T01:10:23.813Z,22.13
2019-05-11T01:11:21.176Z,20.00
2019-05-11T01:12:26.116Z,20.82
2019-05-11T01:13:31.045Z,20.88
2019-05-11T01:14:36.178Z,19.87
2019-05-11T01:15:41.117Z,20.45
2019-05-11T01:16:46.217Z,21.40
2019-05-11T01:17:51.256Z,21.35
2019-05-11T01:18:56.188Z,20.40
2019-05-11T01:20:01.597Z,20.48
2019-05-11T01:21:06.718Z,20.90
2019-05-11T01:22:11.813Z,22.00
2019-05-11T01:23:16.900Z,21.50
2019-05-11T01:24:22.001Z,21.97
2019-05-11T01:25:27.084Z,21.95
2019-05-11T01:26:32.513Z,22.32
2019-05-11T01:27:37.868Z,20.85
2019-05-11T01:28:42.970Z,21.33
2019-05-11T01:29:48.050Z,22.10
2019-05-11T01:30:53.477Z,22.22
2019-05-11T01:31:59.113Z,22.70
2019-05-11T01:33:04.514Z,22.52
2019-05-11T01:34:10.275Z,22.73
2019-05-11T01:35:15.798Z,22.60
2019-05-11T01:36:21.466Z,23.15
2019-05-11T01:37:26.731Z,24.12
2019-05-11T01:38:31.830Z,23.80
2019-05-11T01:39:37.101Z,22.90
2019-05-11T01:40:56.465Z,23.50
2019-05-11T01:41:49.347Z,22.98
2019-05-11T01:42:54.575Z,22.80
2019-05-11T01:43:59.729Z,24.45
2019-05-11T01:45:05.358Z,23.85
2019-05-11T01:46:10.607Z,25.27
2019-05-11T01:47:15.864Z,24.37
2019-05-11T01:48:20.917Z,24.77
2019-05-11T01:49:26.039Z,23.40
2019-05-11T01:50:31.514Z,24.75
2019-05-11T01:51:36.850Z,24.37
2019-05-11T01:52:42.792Z,25.27
2019-05-11T01:53:48.248Z,25.72
2019-05-11T01:54:53.333Z,25.48
2019-05-11T01:55:58.870Z,26.15
2019-05-11T01:57:04.612Z,26.50
2019-05-11T01:58:10.027Z,26.48
2019-05-11T01:59:15.874Z,26.23
2019-05-11T02:00:21.429Z,26.15
2019-05-11T02:01:26.717Z,25.30
2019-05-11T02:02:31.858Z,25.52
2019-05-11T02:03:36.919Z,24.87
2019-05-11T02:04:42.036Z,25.23
2019-05-11T02:05:47.280Z,24.70
2019-05-11T02:06:52.507Z,25.52
2019-05-11T02:07:58.918Z,25.35
2019-05-11T02:09:04.810Z,24.77
2019-05-11T02:10:10.116Z,24.20
2019-05-11T02:11:16.263Z,23.80
2019-05-11T02:12:21.454Z,24.37
2019-05-11T02:13:26.689Z,24.18
2019-05-11T02:14:32.050Z,23.77
2019-05-11T02:15:37.196Z,24.75
2019-05-11T02:16:42.520Z,24.55
2019-05-11T02:17:47.730Z,22.67
2019-05-11T02:18:52.761Z,22.95
2019-05-11T02:19:57.944Z,23.47
2019-05-11T02:21:03.128Z,24.00
2019-05-11T02:22:08.473Z,24.45
2019-05-11T02:23:13.580Z,22.93
2019-05-11T02:24:18.821Z,24.18
2019-05-11T02:25:24.044Z,23.77
2019-05-11T02:26:29.139Z,22.70
2019-05-11T02:27:34.356Z,23.90
2019-05-11T02:28:39.423Z,22.95
2019-05-11T02:29:45.178Z,22.52
2019-05-11T02:30:50.546Z,24.45
2019-05-11T02:31:55.989Z,23.47
2019-05-11T02:33:01.127Z,24.45
2019-05-11T02:34:06.549Z,23.98
2019-05-11T02:35:11.778Z,24.37
2019-05-11T02:36:17.107Z,24.85
2019-05-11T02:37:22.658Z,24.63
2019-05-11T02:38:27.730Z,25.20
2019-05-11T02:39:36.162Z,24.27
2019-05-11T02:40:41.257Z,24.65
2019-05-11T02:41:46.574Z,25.37
2019-05-11T02:42:51.815Z,24.25
2019-05-11T02:43:57.227Z,25.25
2019-05-11T02:45:02.463Z,25.27
2019-05-11T02:46:07.884Z,24.98
2019-05-11T02:47:13.360Z,25.20
2019-05-11T02:48:18.738Z,24.32
2019-05-11T02:49:27.714Z,23.77
2019-05-11T02:50:30.944Z,24.35
2019-05-11T02:51:36.420Z,24.63
2019-05-11T02:52:42.297Z,25.90
2019-05-11T02:53:49.491Z,24.63
2019-05-11T02:54:56.454Z,25.77
2019-05-11T02:56:03.873Z,25.62
2019-05-11T02:57:09.278Z,24.92
2019-05-11T02:58:14.633Z,27.00
2019-05-11T02:59:19.696Z,25.85
2019-05-11T03:00:35.390Z,25.85
2019-05-11T03:01:40.459Z,26.23
2019-05-11T03:02:45.836Z,26.30
2019-05-11T03:03:51.027Z,27.80
2019-05-11T03:04:56.144Z,27.77
2019-05-11T03:06:02.131Z,27.93
2019-05-11T03:07:07.307Z,27.15
2019-05-11T03:08:12.507Z,28.62
2019-05-11T03:09:17.772Z,27.93
2019-05-11T03:10:22.872Z,27.37
2019-05-11T03:11:28.509Z,27.50
2019-05-11T03:12:33.685Z,27.95
2019-05-11T03:13:38.852Z,26.50
2019-05-11T03:14:44.135Z,28.40
2019-05-11T03:15:49.229Z,28.02
2019-05-11T03:17:12.168Z,29.95
2019-05-11T03:18:17.467Z,26.93
2019-05-11T03:19:22.983Z,29.18
2019-05-11T03:20:28.204Z,26.93
2019-05-11T03:21:33.440Z,27.62
2019-05-11T03:22:38.732Z,28.47
2019-05-11T03:23:43.767Z,25.90
2019-05-11T03:24:49.072Z,28.02
2019-05-11T03:25:54.349Z,27.52
2019-05-11T03:26:59.486Z,25.80
2019-05-11T03:28:04.752Z,28.07
2019-05-11T03:29:09.917Z,27.60
2019-05-11T03:30:15.454Z,27.55
2019-05-11T03:31:20.698Z,26.80
2019-05-11T03:32:25.823Z,27.75
2019-05-11T03:33:30.904Z,27.55
2019-05-11T03:34:36.146Z,28.10
2019-05-11T03:35:41.844Z,26.87
2019-05-11T03:36:47.595Z,27.35
2019-05-11T03:37:52.657Z,27.52
2019-05-11T03:38:57.855Z,27.22
2019-05-11T03:40:03.178Z,27.55
2019-05-11T03:41:08.557Z,26.52
2019-05-11T03:42:15.339Z,26.82
2019-05-11T03:43:20.614Z,25.95
2019-05-11T03:44:25.878Z,25.75
2019-05-11T03:45:30.956Z,26.62
2019-05-11T03:46:36.828Z,25.88
2019-05-11T03:47:42.238Z,26.07
2019-05-11T03:48:47.485Z,24.98
2019-05-11T03:49:52.478Z,25.52
2019-05-11T03:50:57.708Z,24.40
2019-05-11T03:52:03.111Z,25.72
2019-05-11T03:53:08.257Z,23.45
2019-05-11T03:54:14.579Z,23.95
2019-05-11T03:55:19.798Z,24.05
2019-05-11T03:56:25.020Z,24.65
2019-05-11T03:57:30.064Z,23.90
2019-05-11T03:58:35.410Z,22.73
2019-05-11T03:59:40.694Z,23.83
2019-05-11T04:00:45.818Z,23.32
2019-05-11T04:01:50.961Z,22.82
2019-05-11T04:02:56.200Z,23.12
2019-05-11T04:04:01.975Z,22.82
2019-05-11T04:05:07.460Z,24.90
2019-05-11T04:06:13.313Z,23.32
2019-05-11T04:07:18.900Z,23.05
2019-05-11T04:08:24.166Z,23.05
2019-05-11T04:09:29.410Z,22.40
2019-05-11T04:10:35.096Z,22.98
2019-05-11T04:11:40.227Z,23.87
2019-05-11T04:12:46.037Z,23.75
2019-05-11T04:13:51.803Z,24.15
2019-05-11T04:14:56.978Z,24.85
2019-05-11T04:16:02.192Z,22.65
2019-05-11T04:17:08.048Z,23.45
2019-05-11T04:18:13.290Z,23.92
2019-05-11T04:19:18.401Z,24.15
2019-05-11T04:20:24.180Z,23.57
2019-05-11T04:21:29.585Z,23.22
2019-05-11T04:22:34.672Z,23.10
2019-05-11T04:23:40.088Z,23.00
2019-05-11T04:24:45.339Z,23.62
2019-05-11T04:25:50.484Z,22.80
2019-05-11T04:26:56.128Z,22.58
2019-05-11T04:28:02.085Z,23.27
2019-05-11T04:29:07.597Z,23.32
2019-05-11T04:30:13.395Z,23.20
2019-05-11T04:31:19.056Z,22.98
2019-05-11T04:32:24.998Z,23.12
2019-05-11T04:33:32.979Z,23.80
2019-05-11T04:34:38.660Z,23.73
2019-05-11T04:35:44.542Z,24.18
2019-05-11T04:36:50.490Z,23.18
2019-05-11T04:37:55.765Z,22.85
2019-05-11T04:39:01.442Z,22.85
2019-05-11T04:40:07.467Z,23.00
2019-05-11T04:41:12.757Z,22.70
2019-05-11T04:42:17.986Z,23.95
2019-05-11T04:43:23.135Z,21.50
2019-05-11T04:44:28.388Z,23.20
2019-05-11T04:45:33.625Z,23.35
2019-05-11T04:46:39.318Z,22.27
2019-05-11T04:47:45.010Z,21.87
2019-05-11T04:48:50.415Z,23.20
2019-05-11T04:49:56.178Z,21.87
2019-05-11T04:51:01.774Z,22.90
2019-05-11T04:52:07.685Z,23.32
2019-05-11T04:53:13.519Z,23.02
2019-05-11T04:54:19.195Z,21.82
2019-05-11T04:55:24.510Z,22.58
2019-05-11T04:56:30.185Z,22.00
2019-05-11T04:57:35.448Z,22.17
2019-05-11T04:58:40.903Z,22.40
2019-05-11T04:59:46.715Z,22.73
2019-05-11T05:00:52.380Z,23.02
2019-05-11T05:01:57.751Z,23.12
2019-05-11T05:03:02.923Z,21.77
2019-05-11T05:04:13.956Z,22.10
2019-05-11T05:05:15.834Z,22.13
2019-05-11T05:06:24.055Z,21.65
2019-05-11T05:07:28.394Z,22.00
2019-05-11T05:08:33.897Z,22.25
2019-05-11T05:09:42.923Z,20.97
2019-05-11T05:10:46.334Z,22.20
2019-05-11T05:11:52.016Z,20.70
2019-05-11T05:13:09.755Z,21.37
2019-05-11T05:14:08.371Z,20.32
2019-05-11T05:15:11.571Z,20.92
2019-05-11T05:16:17.396Z,21.57
2019-05-11T05:17:22.666Z,21.15
2019-05-11T05:18:27.729Z,20.82
2019-05-11T05:19:33.330Z,21.77
2019-05-11T05:20:38.595Z,20.50
2019-05-11T05:21:43.723Z,21.23
2019-05-11T05:22:49.189Z,20.77
2019-05-11T05:23:54.469Z,21.20
2019-05-11T05:24:59.691Z,21.48
2019-05-11T05:26:04.911Z,20.35
2019-05-11T05:27:10.164Z,19.85
2019-05-11T05:28:15.451Z,21.10
2019-05-11T05:29:20.715Z,20.50
2019-05-11T05:30:25.892Z,21.00
2019-05-11T05:31:31.824Z,20.48
2019-05-11T05:32:37.187Z,20.05
2019-05-11T05:33:43.031Z,18.05
2019-05-11T05:34:48.908Z,19.67
2019-05-11T05:35:54.697Z,19.25
2019-05-11T05:37:00.647Z,18.87
2019-05-11T05:38:06.538Z,18.50
2019-05-11T05:39:11.677Z,18.20
2019-05-11T05:40:17.254Z,18.62
2019-05-11T05:41:22.898Z,18.27
2019-05-11T05:42:28.737Z,18.82
2019-05-11T05:43:34.445Z,19.07
2019-05-11T05:44:40.297Z,19.10
2019-05-11T05:45:46.194Z,19.30
2019-05-11T05:46:51.936Z,18.90
2019-05-11T05:47:57.308Z,19.50
2019-05-11T05:49:03.188Z,18.40
2019-05-11T05:50:09.139Z,18.25
2019-05-11T05:51:15.105Z,18.12
2019-05-11T05:52:21.023Z,17.10
2019-05-11T05:53:26.469Z,18.05
2019-05-11T05:54:32.276Z,16.60
2019-05-11T05:55:37.740Z,17.12
2019-05-11T05:56:43.173Z,17.32
2019-05-11T05:57:48.963Z,27.60
2019-05-11T05:58:57.669Z,32.20
2019-05-11T06:00:03.559Z,24.10
2019-05-11T06:01:10.165Z,23.77
2019-05-11T06:02:16.099Z,17.37
2019-05-11T06:03:22.408Z,16.20
2019-05-11T06:04:28.154Z,18.48
2019-05-11T06:05:34.159Z,31.12
2019-05-11T06:06:39.769Z,60.03
2019-05-11T06:07:45.447Z,28.83
2019-05-11T06:08:51.210Z,19.85
2019-05-11T06:09:57.086Z,25.00
2019-05-11T06:11:03.341Z,27.73
2019-05-11T06:12:09.189Z,58.42
2019-05-11T06:13:15.056Z,79.67
2019-05-11T06:14:20.964Z,53.20
2019-05-11T06:15:26.934Z,19.30
2019-05-11T06:16:32.771Z,16.80
2019-05-11T06:17:38.656Z,15.32
2019-05-11T06:18:43.939Z,15.58
2019-05-11T06:19:49.874Z,15.70
2019-05-11T06:20:54.852Z,16.23
2019-05-11T06:21:59.963Z,15.85
2019-05-11T06:23:05.041Z,19.80
2019-05-11T06:24:10.466Z,25.00
2019-05-11T06:25:15.877Z,25.72
2019-05-11T06:26:20.965Z,25.07
2019-05-11T06:27:26.118Z,17.35
2019-05-11T06:28:31.198Z,26.20
2019-05-11T06:29:36.547Z,24.97
2019-05-11T06:30:41.546Z,18.27
2019-05-11T06:31:46.538Z,20.00
2019-05-11T06:32:51.673Z,17.37
2019-05-11T06:33:56.990Z,17.50
2019-05-11T06:35:02.697Z,18.17
2019-05-11T06:36:08.251Z,17.12
2019-05-11T06:37:13.607Z,16.67
2019-05-11T06:38:18.632Z,15.78
2019-05-11T06:39:23.862Z,15.38
2019-05-11T06:40:28.988Z,15.35
2019-05-11T06:41:34.081Z,14.68
2019-05-11T06:42:39.194Z,14.38
2019-05-11T06:43:59.550Z,14.90
2019-05-11T06:44:50.880Z,13.90
2019-05-11T06:45:56.143Z,14.37
2019-05-11T06:47:01.235Z,14.28
2019-05-11T06:48:06.266Z,13.90
2019-05-11T06:49:11.358Z,14.03
2019-05-11T06:50:16.760Z,13.30
2019-05-11T06:51:21.711Z,13.07
2019-05-11T06:52:26.926Z,13.78
2019-05-11T06:53:32.001Z,15.20
2019-05-11T06:54:37.151Z,13.13
2019-05-11T06:55:42.319Z,13.50
2019-05-11T06:56:47.384Z,13.35
2019-05-11T06:57:52.427Z,13.45
2019-05-11T06:58:57.666Z,13.45
2019-05-11T07:00:02.874Z,12.45
2019-05-11T07:01:08.445Z,12.70
2019-05-11T07:02:14.199Z,13.53
2019-05-11T07:03:19.597Z,13.38
2019-05-11T07:04:24.873Z,13.40
2019-05-11T07:05:30.849Z,13.18
2019-05-11T07:06:35.954Z,12.80
2019-05-11T07:07:47.397Z,11.40
2019-05-11T07:08:48.495Z,10.98
2019-05-11T07:09:53.615Z,11.43
2019-05-11T07:10:58.937Z,11.35
2019-05-11T07:12:04.316Z,11.03
2019-05-11T07:13:09.433Z,11.33
2019-05-11T07:14:20.521Z,12.13
2019-05-11T07:15:21.869Z,10.95
2019-05-11T07:16:27.201Z,10.77
2019-05-11T07:17:32.570Z,10.67
2019-05-11T07:18:38.064Z,11.27
2019-05-11T07:19:47.679Z,11.30
2019-05-11T07:20:52.615Z,11.08
2019-05-11T07:21:58.200Z,11.70
2019-05-11T07:23:05.895Z,10.95
2019-05-11T07:24:13.245Z,11.53
2019-05-11T07:25:18.385Z,12.20
2019-05-11T07:26:23.758Z,11.08
2019-05-11T07:27:29.493Z,12.53
2019-05-11T07:28:34.578Z,11.90
2019-05-11T07:29:39.759Z,12.33
2019-05-11T07:30:45.143Z,12.23
2019-05-11T07:31:50.630Z,12.30
2019-05-11T07:32:58.143Z,12.90
2019-05-11T07:34:03.119Z,13.35
2019-05-11T07:35:09.499Z,13.20
2019-05-11T07:36:14.661Z,13.08
2019-05-11T07:37:19.933Z,13.00
2019-05-11T07:38:27.650Z,12.40
2019-05-11T07:39:32.467Z,11.83
2019-05-11T07:40:38.466Z,13.13
2019-05-11T07:41:43.804Z,13.50
2019-05-11T07:42:49.360Z,13.28
2019-05-11T07:43:54.448Z,13.80
2019-05-11T07:45:00.061Z,13.60
2019-05-11T07:46:07.633Z,12.75
2019-05-11T07:47:12.594Z,13.95
2019-05-11T07:48:18.763Z,14.25
2019-05-11T07:49:23.884Z,14.75
2019-05-11T07:50:29.178Z,15.88
2019-05-11T07:51:34.599Z,13.15
2019-05-11T07:52:39.820Z,13.90
2019-05-11T07:53:45.140Z,12.10
2019-05-11T07:54:52.973Z,13.07
2019-05-11T07:55:57.872Z,15.93
2019-05-11T07:57:03.881Z,19.77
2019-05-11T07:58:09.814Z,15.32
2019-05-11T07:59:15.101Z,15.18
2019-05-11T08:00:20.361Z,20.55
2019-05-11T08:01:27.955Z,15.60
2019-05-11T08:02:32.770Z,13.57
2019-05-11T08:03:38.973Z,12.58
2019-05-11T08:04:44.933Z,19.37
2019-05-11T08:05:50.365Z,46.83
2019-05-11T08:06:58.144Z,28.75
2019-05-11T08:08:02.562Z,32.60
2019-05-11T08:09:08.842Z,17.37
2019-05-11T08:10:14.687Z,14.30
2019-05-11T08:11:20.450Z,8.70
2019-05-11T08:12:28.266Z,8.90
2019-05-11T08:13:32.354Z,10.67
2019-05-11T08:14:55.769Z,16.27
2019-05-11T08:15:45.281Z,10.77
2019-05-11T08:16:50.484Z,9.35
2019-05-11T08:17:57.774Z,8.53
2019-05-11T08:19:06.620Z,8.23
2019-05-11T08:20:11.025Z,8.55
2019-05-11T08:21:17.876Z,8.10
2019-05-11T08:22:23.530Z,7.47
2019-05-11T08:23:29.057Z,7.70
2019-05-11T08:24:34.408Z,6.50
2019-05-11T08:25:39.879Z,7.43
2019-05-11T08:26:45.111Z,6.97
2019-05-11T08:27:50.290Z,6.70
2019-05-11T08:28:57.704Z,7.17
2019-05-11T08:30:02.342Z,6.55
2019-05-11T08:31:08.197Z,6.63
2019-05-11T08:32:13.465Z,6.20
2019-05-11T08:33:18.975Z,7.23
2019-05-11T08:34:24.449Z,7.03
2019-05-11T08:35:31.353Z,6.60
2019-05-11T08:36:37.971Z,6.40
2019-05-11T08:37:43.368Z,6.77
2019-05-11T08:38:48.795Z,6.67
2019-05-11T08:39:54.102Z,6.53
2019-05-11T08:40:59.853Z,5.97
2019-05-11T08:42:05.777Z,5.87
2019-05-11T08:43:11.633Z,6.80
2019-05-11T08:44:18.217Z,5.70
2019-05-11T08:45:24.841Z,6.53
2019-05-11T08:46:30.333Z,5.80
2019-05-11T08:47:37.579Z,5.73
2019-05-11T08:48:42.574Z,6.27
2019-05-11T08:49:48.487Z,6.33
2019-05-11T08:50:54.049Z,7.00
2019-05-11T08:51:59.846Z,6.53
2019-05-11T08:53:05.389Z,5.80
2019-05-11T08:54:10.828Z,6.00
2019-05-11T08:55:18.985Z,5.80
2019-05-11T08:56:24.530Z,4.93
2019-05-11T08:57:29.647Z,5.90
2019-05-11T08:58:34.668Z,5.17
2019-05-11T08:59:41.428Z,4.83
2019-05-11T09:00:47.795Z,4.80
2019-05-11T09:01:52.932Z,5.17
2019-05-11T09:02:58.395Z,5.00
2019-05-11T09:04:03.498Z,7.27
2019-05-11T09:05:08.702Z,6.00
2019-05-11T09:06:13.680Z,6.00
2019-05-11T09:07:18.657Z,6.40
2019-05-11T09:08:24.683Z,8.47
2019-05-11T09:09:29.718Z,4.90
2019-05-11T09:10:36.975Z,4.60
2019-05-11T09:11:41.790Z,4.50
2019-05-11T09:12:48.836Z,3.90
2019-05-11T09:13:53.394Z,4.57
2019-05-11T09:14:58.346Z,5.57
2019-05-11T09:16:03.333Z,4.70
2019-05-11T09:17:08.504Z,4.50
2019-05-11T09:18:13.469Z,4.47
2019-05-11T09:19:18.380Z,4.27
2019-05-11T09:20:23.352Z,4.57
2019-05-11T09:21:28.320Z,4.03
2019-05-11T09:22:33.296Z,4.10
2019-05-11T09:23:40.768Z,4.87
2019-05-11T09:24:44.949Z,4.23
2019-05-11T09:25:50.040Z,4.80
2019-05-11T09:26:58.640Z,4.83
2019-05-11T09:28:04.007Z,4.07
2019-05-11T09:29:08.960Z,3.93
2019-05-11T09:30:14.241Z,4.00
2019-05-11T09:31:19.239Z,4.20
2019-05-11T09:32:24.486Z,4.27
2019-05-11T09:33:29.564Z,4.30
2019-05-11T09:34:34.583Z,4.43
2019-05-11T09:35:49.630Z,4.27
2019-05-11T09:36:47.959Z,4.20
2019-05-11T09:37:53.348Z,4.00
2019-05-11T09:38:58.403Z,4.07
2019-05-11T09:40:03.762Z,3.97
2019-05-11T09:41:12.147Z,4.07
2019-05-11T09:42:17.902Z,3.70
2019-05-11T09:43:23.690Z,4.70
2019-05-11T09:44:29.052Z,4.40
2019-05-11T09:45:45.883Z,4.87
2019-05-11T09:46:40.789Z,3.80
2019-05-11T09:47:47.719Z,4.13
2019-05-11T09:48:52.454Z,4.20
2019-05-11T09:49:58.209Z,4.57
2019-05-11T09:51:03.574Z,3.97
2019-05-11T09:52:08.829Z,4.00
2019-05-11T09:53:13.890Z,4.20
2019-05-11T09:54:19.043Z,4.67
2019-05-11T09:55:24.003Z,4.47
2019-05-11T09:56:29.290Z,5.47
2019-05-11T09:57:34.443Z,4.40
2019-05-11T09:58:39.635Z,4.50
2019-05-11T09:59:44.677Z,4.60
2019-05-11T10:00:49.803Z,4.63
2019-05-11T10:01:55.134Z,4.20
2019-05-11T10:03:00.196Z,4.80
2019-05-11T10:04:05.377Z,4.43
2019-05-11T10:05:10.667Z,4.63
2019-05-11T10:06:15.701Z,4.23
2019-05-11T10:07:20.661Z,4.20
2019-05-11T10:08:25.792Z,4.10
2019-05-11T10:09:31.009Z,4.23
2019-05-11T10:10:38.136Z,4.37
2019-05-11T10:11:43.042Z,4.10
2019-05-11T10:12:48.619Z,4.10
2019-05-11T10:13:54.838Z,4.67
2019-05-11T10:14:59.904Z,4.43
2019-05-11T10:16:08.070Z,4.80
2019-05-11T10:17:11.955Z,4.37
2019-05-11T10:18:18.590Z,4.50
2019-05-11T10:19:23.813Z,4.50
2019-05-11T10:20:31.444Z,4.40
2019-05-11T10:21:38.522Z,4.57
2019-05-11T10:22:43.164Z,4.03
2019-05-11T10:23:48.926Z,4.00
2019-05-11T10:24:58.238Z,4.70
2019-05-11T10:26:03.492Z,4.60
2019-05-11T10:27:08.590Z,3.87
2019-05-11T10:28:13.774Z,4.60
2019-05-11T10:29:18.831Z,3.93
2019-05-11T10:30:24.052Z,3.50
2019-05-11T10:31:31.088Z,3.30
2019-05-11T10:32:37.933Z,3.40
2019-05-11T10:33:42.849Z,3.57
2019-05-11T10:34:47.979Z,3.73
2019-05-11T10:35:52.993Z,4.03
2019-05-11T10:36:58.261Z,4.50
2019-05-11T10:38:03.441Z,4.50
2019-05-11T10:39:09.979Z,4.50
2019-05-11T10:40:15.345Z,5.30
2019-05-11T10:41:20.470Z,5.47
2019-05-11T10:42:25.537Z,3.97
2019-05-11T10:43:30.587Z,3.90
2019-05-11T10:44:35.692Z,4.97
2019-05-11T10:45:40.765Z,4.63
2019-05-11T10:46:48.195Z,3.77
2019-05-11T10:47:55.730Z,3.57
2019-05-11T10:48:59.545Z,3.40
2019-05-11T10:50:04.911Z,3.53
2019-05-11T10:51:10.786Z,3.50
2019-05-11T10:52:17.846Z,3.50
2019-05-11T10:53:22.563Z,3.97
2019-05-11T10:54:29.931Z,4.50
2019-05-11T10:55:34.976Z,3.60
2019-05-11T10:56:40.056Z,3.33
2019-05-11T10:57:45.130Z,3.73
2019-05-11T10:58:50.163Z,4.20
2019-05-11T10:59:57.953Z,4.57
2019-05-11T11:01:03.083Z,4.63
2019-05-11T11:02:08.249Z,5.00
2019-05-11T11:03:13.330Z,7.93
2019-05-11T11:04:18.599Z,5.37
2019-05-11T11:05:23.813Z,4.80
2019-05-11T11:06:29.942Z,6.30
2019-05-11T11:07:34.933Z,5.70
2019-05-11T11:08:40.003Z,4.30
2019-05-11T11:09:45.047Z,3.73
2019-05-11T11:10:50.013Z,3.67
2019-05-11T11:11:57.728Z,3.37
2019-05-11T11:13:02.411Z,4.00
2019-05-11T11:14:08.688Z,3.50
2019-05-11T11:15:14.241Z,3.10
2019-05-11T11:16:35.033Z,3.40
2019-05-11T11:17:25.989Z,3.33
2019-05-11T11:18:31.071Z,3.23
2019-05-11T11:19:38.079Z,3.57
2019-05-11T11:20:42.798Z,3.20
2019-05-11T11:21:48.812Z,3.63
2019-05-11T11:22:54.009Z,3.60
2019-05-11T11:23:58.966Z,2.67
2019-05-11T11:25:04.122Z,2.70
2019-05-11T11:26:09.284Z,2.80
2019-05-11T11:27:14.338Z,2.60
2019-05-11T11:28:19.469Z,2.90
2019-05-11T11:29:24.488Z,3.03
2019-05-11T11:30:29.580Z,3.10
2019-05-11T11:31:34.621Z,3.03
2019-05-11T11:32:39.589Z,2.83
2019-05-11T11:33:44.655Z,3.20
2019-05-11T11:34:51.851Z,3.17
2019-05-11T11:35:57.974Z,18.03
2019-05-11T11:37:03.287Z,17.07
2019-05-11T11:38:08.813Z,5.10
2019-05-11T11:39:13.975Z,3.40
2019-05-11T11:40:19.248Z,3.00
2019-05-11T11:41:24.247Z,5.27
2019-05-11T11:42:29.485Z,7.10
2019-05-11T11:43:34.700Z,3.03
2019-05-11T11:44:39.912Z,2.70
2019-05-11T11:45:45.358Z,3.00
2019-05-11T11:46:54.859Z,2.60
2019-05-11T11:47:58.048Z,2.80
2019-05-11T11:49:03.326Z,2.83
2019-05-11T11:50:09.257Z,2.60
2019-05-11T11:51:14.729Z,2.83
2019-05-11T11:52:19.779Z,3.80
2019-05-11T11:53:24.942Z,2.90
2019-05-11T11:54:29.906Z,2.70
2019-05-11T11:55:35.048Z,3.00
2019-05-11T11:56:40.038Z,3.10
2019-05-11T11:57:45.251Z,3.20
2019-05-11T11:58:50.243Z,2.57
2019-05-11T11:59:55.288Z,2.87
2019-05-11T12:01:00.455Z,2.53
2019-05-11T12:02:05.527Z,2.40
2019-05-11T12:03:10.666Z,2.37
2019-05-11T12:04:15.738Z,2.97
2019-05-11T12:05:20.968Z,2.27
2019-05-11T12:06:27.955Z,3.07
2019-05-11T12:07:32.848Z,3.30
2019-05-11T12:08:38.872Z,3.00
2019-05-11T12:09:44.068Z,2.60
2019-05-11T12:10:49.127Z,2.47
2019-05-11T12:11:54.191Z,2.53
2019-05-11T12:12:59.312Z,2.53
2019-05-11T12:14:08.673Z,2.57
2019-05-11T12:15:14.469Z,2.50
2019-05-11T12:16:19.688Z,2.80
2019-05-11T12:17:25.058Z,2.50
2019-05-11T12:18:30.292Z,2.60
2019-05-11T12:19:35.314Z,2.70
2019-05-11T12:20:40.773Z,2.83
2019-05-11T12:21:45.818Z,2.60
2019-05-11T12:22:50.939Z,2.90
2019-05-11T12:23:58.376Z,2.70
2019-05-11T12:25:02.733Z,2.90
2019-05-11T12:26:08.547Z,2.83
2019-05-11T12:27:14.784Z,3.00
2019-05-11T12:28:19.942Z,2.90
2019-05-11T12:29:25.088Z,2.87
2019-05-11T12:30:30.284Z,2.60
2019-05-11T12:31:35.263Z,2.60
2019-05-11T12:32:44.647Z,2.60
2019-05-11T12:33:49.802Z,2.50
2019-05-11T12:34:54.979Z,2.80
2019-05-11T12:36:00.073Z,2.60
2019-05-11T12:37:05.278Z,2.80
2019-05-11T12:38:10.469Z,2.77
2019-05-11T12:39:15.577Z,2.77
2019-05-11T12:40:21.323Z,2.37
2019-05-11T12:41:28.038Z,2.73
2019-05-11T12:42:33.311Z,2.77
2019-05-11T12:43:38.441Z,2.80
2019-05-11T12:44:43.552Z,2.70
2019-05-11T12:45:48.772Z,2.63
2019-05-11T12:46:53.864Z,2.60
2019-05-11T12:47:59.031Z,2.87
2019-05-11T12:49:04.123Z,2.60
2019-05-11T12:50:10.277Z,2.60
2019-05-11T12:51:15.564Z,3.07
2019-05-11T12:52:20.744Z,2.80
2019-05-11T12:53:28.158Z,3.13
2019-05-11T12:54:34.109Z,2.80
2019-05-11T12:55:39.421Z,2.70
2019-05-11T12:56:44.461Z,3.10
2019-05-11T12:57:49.494Z,3.10
2019-05-11T12:58:54.491Z,4.50
2019-05-11T12:59:59.656Z,3.50
2019-05-11T13:01:04.879Z,3.40
2019-05-11T13:02:09.972Z,3.07
2019-05-11T13:03:15.001Z,2.50
2019-05-11T13:04:20.031Z,3.67
2019-05-11T13:05:25.205Z,2.83
2019-05-11T13:06:30.317Z,2.70
2019-05-11T13:07:35.800Z,2.30
2019-05-11T13:08:40.861Z,2.77
2019-05-11T13:09:48.267Z,2.60
2019-05-11T13:10:52.474Z,2.73
2019-05-11T13:11:58.758Z,2.30
2019-05-11T13:13:04.013Z,2.60
2019-05-11T13:14:09.054Z,2.60
2019-05-11T13:15:14.840Z,2.57
2019-05-11T13:16:20.039Z,2.70
2019-05-11T13:17:36.594Z,2.40
2019-05-11T13:18:32.239Z,3.30
2019-05-11T13:19:38.608Z,2.90
2019-05-11T13:20:43.968Z,2.90
2019-05-11T13:21:49.153Z,3.53
2019-05-11T13:22:54.413Z,3.10
2019-05-11T13:23:59.555Z,2.70
2019-05-11T13:25:08.357Z,2.57
2019-05-11T13:26:13.486Z,2.40
2019-05-11T13:27:18.828Z,2.33
2019-05-11T13:28:23.866Z,2.50
2019-05-11T13:29:29.042Z,2.67
2019-05-11T13:30:34.230Z,2.20
2019-05-11T13:31:39.386Z,2.80
2019-05-11T13:32:44.361Z,2.67
2019-05-11T13:33:49.639Z,2.57
2019-05-11T13:34:54.725Z,2.30
2019-05-11T13:35:59.807Z,2.53
2019-05-11T13:37:04.947Z,2.63
2019-05-11T13:38:09.999Z,2.57
2019-05-11T13:39:15.021Z,2.43
2019-05-11T13:40:20.330Z,2.80
2019-05-11T13:41:27.466Z,2.50
2019-05-11T13:42:32.688Z,2.37
2019-05-11T13:43:38.596Z,2.70
2019-05-11T13:44:43.817Z,2.80
2019-05-11T13:45:48.907Z,3.00
2019-05-11T13:46:53.975Z,2.90
2019-05-11T13:47:59.457Z,3.00
2019-05-11T13:49:04.540Z,2.90
2019-05-11T13:50:09.967Z,2.97
2019-05-11T13:51:15.366Z,2.43
2019-05-11T13:52:20.538Z,2.93
2019-05-11T13:53:27.481Z,3.20
2019-05-11T13:54:32.253Z,2.93
2019-05-11T13:55:38.806Z,2.40
2019-05-11T13:56:44.043Z,2.40
2019-05-11T13:57:49.066Z,2.13
2019-05-11T13:58:55.482Z,2.60
2019-05-11T14:00:00.688Z,2.20
2019-05-11T14:01:08.015Z,2.80
2019-05-11T14:02:12.525Z,2.60
2019-05-11T14:03:18.405Z,2.53
2019-05-11T14:04:23.620Z,2.43
2019-05-11T14:05:29.047Z,2.40
2019-05-11T14:06:33.964Z,2.23
2019-05-11T14:07:39.377Z,2.67
2019-05-11T14:08:44.371Z,2.20
2019-05-11T14:09:49.814Z,2.50
2019-05-11T14:10:54.645Z,2.50
2019-05-11T14:12:00.133Z,2.57
2019-05-11T14:13:05.382Z,2.60
2019-05-11T14:14:10.648Z,2.43
2019-05-11T14:15:15.623Z,2.17
2019-05-11T14:16:20.905Z,2.40